sensor_id;sensor_type;location;lat;lon;timestamp;P1;durP1;ratioP1;P2;durP2;ratioP2
22955;SDS011;40888;48.148;11.526;2023-09-08T00:00:06;8.15;;;5.60;;
22955;SDS011;40888;48.148;11.526;2023-09-08T00:02:34;8.25;;;5.65;;
22955;SDS011;40888;48.148;11.526;2023-09-08T00:05:00;8.27;;;5.93;;
22955;SDS011;40888;48.148;11.526;2023-09-08T00:07:25;8.80;;;5.60;;
22955;SDS011;40888;48.148;11.526;2023-09-08T00:09:51;6.82;;;6.07;;
22955;SDS011;40888;48.148;11.526;2023-09-08T00:12:17;8.43;;;6.22;;
22955;SDS011;40888;48.148;11.526;2023-09-08T00:14:43;8.57;;;6.05;;
22955;SDS011;40888;48.148;11.526;2023-09-08T00:17:09;9.15;;;5.93;;
22955;SDS011;40888;48.148;11.526;2023-09-08T00:19:35;7.05;;;5.38;;
22955;SDS011;40888;48.148;11.526;2023-09-08T00:22:01;7.82;;;5.97;;
22955;SDS011;40888;48.148;11.526;2023-09-08T00:24:27;8.20;;;5.68;;
22955;SDS011;40888;48.148;11.526;2023-09-08T00:26:52;8.40;;;6.32;;
22955;SDS011;40888;48.148;11.526;2023-09-08T00:29:18;11.35;;;5.88;;
22955;SDS011;40888;48.148;11.526;2023-09-08T00:31:44;6.65;;;5.65;;
22955;SDS011;40888;48.148;11.526;2023-09-08T00:34:10;8.02;;;6.53;;
22955;SDS011;40888;48.148;11.526;2023-09-08T00:36:36;7.43;;;6.05;;
22955;SDS011;40888;48.148;11.526;2023-09-08T00:39:02;10.27;;;6.22;;
22955;SDS011;40888;48.148;11.526;2023-09-08T00:41:27;6.95;;;5.40;;
22955;SDS011;40888;48.148;11.526;2023-09-08T00:43:53;7.68;;;5.80;;
22955;SDS011;40888;48.148;11.526;2023-09-08T00:46:19;6.97;;;5.90;;
22955;SDS011;40888;48.148;11.526;2023-09-08T00:48:45;9.73;;;6.18;;
22955;SDS011;40888;48.148;11.526;2023-09-08T00:51:11;8.60;;;6.38;;
22955;SDS011;40888;48.148;11.526;2023-09-08T00:53:37;7.35;;;5.80;;
22955;SDS011;40888;48.148;11.526;2023-09-08T00:56:02;6.22;;;5.63;;
22955;SDS011;40888;48.148;11.526;2023-09-08T00:58:29;6.13;;;5.40;;
22955;SDS011;40888;48.148;11.526;2023-09-08T01:00:55;7.43;;;6.65;;
22955;SDS011;40888;48.148;11.526;2023-09-08T01:03:26;7.70;;;6.88;;
22955;SDS011;40888;48.148;11.526;2023-09-08T01:05:52;7.82;;;7.05;;
22955;SDS011;40888;48.148;11.526;2023-09-08T01:08:18;7.95;;;7.13;;
22955;SDS011;40888;48.148;11.526;2023-09-08T01:10:44;7.25;;;6.57;;
22955;SDS011;40888;48.148;11.526;2023-09-08T01:13:10;7.28;;;6.57;;
22955;SDS011;40888;48.148;11.526;2023-09-08T01:15:36;7.30;;;6.60;;
22955;SDS011;40888;48.148;11.526;2023-09-08T01:18:01;7.90;;;7.10;;
22955;SDS011;40888;48.148;11.526;2023-09-08T01:20:30;7.85;;;6.95;;
22955;SDS011;40888;48.148;11.526;2023-09-08T01:25:50;8.80;;;6.88;;
22955;SDS011;40888;48.148;11.526;2023-09-08T01:28:20;7.20;;;6.30;;
22955;SDS011;40888;48.148;11.526;2023-09-08T01:30:47;7.88;;;7.15;;
22955;SDS011;40888;48.148;11.526;2023-09-08T01:33:13;7.82;;;7.13;;
22955;SDS011;40888;48.148;11.526;2023-09-08T01:35:39;10.27;;;6.88;;
22955;SDS011;40888;48.148;11.526;2023-09-08T01:38:05;7.28;;;5.93;;
22955;SDS011;40888;48.148;11.526;2023-09-08T01:40:30;8.25;;;6.20;;
22955;SDS011;40888;48.148;11.526;2023-09-08T01:42:56;7.70;;;6.95;;
22955;SDS011;40888;48.148;11.526;2023-09-08T01:45:22;7.85;;;5.93;;
22955;SDS011;40888;48.148;11.526;2023-09-08T01:47:48;8.40;;;6.30;;
22955;SDS011;40888;48.148;11.526;2023-09-08T01:50:13;8.48;;;6.30;;
22955;SDS011;40888;48.148;11.526;2023-09-08T01:52:41;8.15;;;6.30;;
22955;SDS011;40888;48.148;11.526;2023-09-08T01:55:07;7.03;;;6.32;;
22955;SDS011;40888;48.148;11.526;2023-09-08T01:57:33;7.90;;;6.60;;
22955;SDS011;40888;48.148;11.526;2023-09-08T01:59:58;6.90;;;6.20;;
22955;SDS011;40888;48.148;11.526;2023-09-08T02:02:24;6.88;;;5.68;;
22955;SDS011;40888;48.148;11.526;2023-09-08T02:04:50;7.43;;;5.63;;
22955;SDS011;40888;48.148;11.526;2023-09-08T02:07:15;7.40;;;6.47;;
22955;SDS011;40888;48.148;11.526;2023-09-08T02:09:41;8.57;;;6.35;;
22955;SDS011;40888;48.148;11.526;2023-09-08T02:12:07;7.32;;;5.70;;
22955;SDS011;40888;48.148;11.526;2023-09-08T02:14:33;9.95;;;6.70;;
22955;SDS011;40888;48.148;11.526;2023-09-08T02:16:58;8.18;;;7.10;;
22955;SDS011;40888;48.148;11.526;2023-09-08T02:19:24;10.45;;;7.38;;
22955;SDS011;40888;48.148;11.526;2023-09-08T02:21:50;9.40;;;6.97;;
22955;SDS011;40888;48.148;11.526;2023-09-08T02:24:16;8.05;;;7.35;;
22955;SDS011;40888;48.148;11.526;2023-09-08T02:26:42;8.90;;;7.40;;
22955;SDS011;40888;48.148;11.526;2023-09-08T02:29:08;9.75;;;7.53;;
22955;SDS011;40888;48.148;11.526;2023-09-08T02:31:34;8.60;;;7.38;;
22955;SDS011;40888;48.148;11.526;2023-09-08T02:34:00;7.07;;;6.25;;
22955;SDS011;40888;48.148;11.526;2023-09-08T02:36:26;9.43;;;6.97;;
22955;SDS011;40888;48.148;11.526;2023-09-08T02:38:53;8.63;;;7.68;;
22955;SDS011;40888;48.148;11.526;2023-09-08T02:41:22;7.75;;;6.90;;
22955;SDS011;40888;48.148;11.526;2023-09-08T02:43:48;7.80;;;7.10;;
22955;SDS011;40888;48.148;11.526;2023-09-08T02:46:14;7.85;;;7.07;;
22955;SDS011;40888;48.148;11.526;2023-09-08T02:48:40;8.45;;;7.35;;
22955;SDS011;40888;48.148;11.526;2023-09-08T02:51:06;8.10;;;7.25;;
22955;SDS011;40888;48.148;11.526;2023-09-08T02:53:32;7.90;;;7.10;;
22955;SDS011;40888;48.148;11.526;2023-09-08T02:55:58;7.75;;;6.93;;
22955;SDS011;40888;48.148;11.526;2023-09-08T02:58:25;7.95;;;7.07;;
22955;SDS011;40888;48.148;11.526;2023-09-08T03:00:51;7.63;;;6.93;;
22955;SDS011;40888;48.148;11.526;2023-09-08T03:03:17;7.22;;;6.53;;
22955;SDS011;40888;48.148;11.526;2023-09-08T03:05:44;8.00;;;7.20;;
22955;SDS011;40888;48.148;11.526;2023-09-08T03:08:10;7.13;;;6.47;;
22955;SDS011;40888;48.148;11.526;2023-09-08T03:10:36;7.75;;;6.35;;
22955;SDS011;40888;48.148;11.526;2023-09-08T03:13:05;10.65;;;7.10;;
22955;SDS011;40888;48.148;11.526;2023-09-08T03:15:31;8.10;;;6.95;;
22955;SDS011;40888;48.148;11.526;2023-09-08T03:17:57;8.05;;;7.00;;
22955;SDS011;40888;48.148;11.526;2023-09-08T03:20:24;9.05;;;6.10;;
22955;SDS011;40888;48.148;11.526;2023-09-08T03:22:51;8.57;;;7.38;;
22955;SDS011;40888;48.148;11.526;2023-09-08T03:25:17;9.88;;;6.85;;
22955;SDS011;40888;48.148;11.526;2023-09-08T03:27:43;9.00;;;7.80;;
22955;SDS011;40888;48.148;11.526;2023-09-08T03:30:09;9.07;;;6.70;;
22955;SDS011;40888;48.148;11.526;2023-09-08T03:32:36;8.50;;;7.32;;
22955;SDS011;40888;48.148;11.526;2023-09-08T03:35:02;7.95;;;7.15;;
22955;SDS011;40888;48.148;11.526;2023-09-08T03:37:30;8.55;;;7.68;;
22955;SDS011;40888;48.148;11.526;2023-09-08T03:39:55;9.43;;;7.50;;
22955;SDS011;40888;48.148;11.526;2023-09-08T03:42:21;10.45;;;7.70;;
22955;SDS011;40888;48.148;11.526;2023-09-08T03:44:47;7.82;;;7.03;;
22955;SDS011;40888;48.148;11.526;2023-09-08T03:47:13;8.35;;;7.55;;
22955;SDS011;40888;48.148;11.526;2023-09-08T03:49:38;9.30;;;8.32;;
22955;SDS011;40888;48.148;11.526;2023-09-08T03:52:04;8.75;;;7.85;;
22955;SDS011;40888;48.148;11.526;2023-09-08T03:54:30;10.07;;;7.72;;
22955;SDS011;40888;48.148;11.526;2023-09-08T03:56:56;10.20;;;7.68;;
22955;SDS011;40888;48.148;11.526;2023-09-08T03:59:21;8.95;;;8.02;;
22955;SDS011;40888;48.148;11.526;2023-09-08T04:01:47;9.27;;;7.25;;
22955;SDS011;40888;48.148;11.526;2023-09-08T04:04:13;8.30;;;7.40;;
22955;SDS011;40888;48.148;11.526;2023-09-08T04:06:39;9.13;;;7.40;;
22955;SDS011;40888;48.148;11.526;2023-09-08T04:09:04;8.85;;;7.63;;
22955;SDS011;40888;48.148;11.526;2023-09-08T04:11:30;9.68;;;7.63;;
22955;SDS011;40888;48.148;11.526;2023-09-08T04:13:56;8.70;;;7.23;;
22955;SDS011;40888;48.148;11.526;2023-09-08T04:16:22;8.30;;;7.05;;
22955;SDS011;40888;48.148;11.526;2023-09-08T04:18:48;7.93;;;7.03;;
22955;SDS011;40888;48.148;11.526;2023-09-08T04:21:13;7.17;;;6.47;;
22955;SDS011;40888;48.148;11.526;2023-09-08T04:23:39;8.38;;;7.40;;
22955;SDS011;40888;48.148;11.526;2023-09-08T04:26:05;7.23;;;6.43;;
22955;SDS011;40888;48.148;11.526;2023-09-08T04:28:31;9.55;;;7.88;;
22955;SDS011;40888;48.148;11.526;2023-09-08T04:30:57;7.77;;;7.07;;
22955;SDS011;40888;48.148;11.526;2023-09-08T04:33:23;8.15;;;6.72;;
22955;SDS011;40888;48.148;11.526;2023-09-08T04:35:48;8.17;;;7.17;;
22955;SDS011;40888;48.148;11.526;2023-09-08T04:38:14;7.90;;;6.28;;
22955;SDS011;40888;48.148;11.526;2023-09-08T04:40:40;10.40;;;7.03;;
22955;SDS011;40888;48.148;11.526;2023-09-08T04:43:07;8.50;;;6.75;;
22955;SDS011;40888;48.148;11.526;2023-09-08T04:45:32;8.20;;;7.13;;
22955;SDS011;40888;48.148;11.526;2023-09-08T04:47:58;8.80;;;7.80;;
22955;SDS011;40888;48.148;11.526;2023-09-08T04:50:24;12.17;;;7.03;;
22955;SDS011;40888;48.148;11.526;2023-09-08T04:52:50;11.33;;;7.43;;
22955;SDS011;40888;48.148;11.526;2023-09-08T04:55:16;9.37;;;7.70;;
22955;SDS011;40888;48.148;11.526;2023-09-08T04:57:42;9.30;;;6.80;;
22955;SDS011;40888;48.148;11.526;2023-09-08T05:00:08;11.97;;;8.00;;
22955;SDS011;40888;48.148;11.526;2023-09-08T05:02:34;8.63;;;7.00;;
22955;SDS011;40888;48.148;11.526;2023-09-08T05:05:00;11.00;;;6.50;;
22955;SDS011;40888;48.148;11.526;2023-09-08T05:07:25;7.63;;;6.50;;
22955;SDS011;40888;48.148;11.526;2023-09-08T05:09:51;7.67;;;6.37;;
22955;SDS011;40888;48.148;11.526;2023-09-08T05:12:17;8.07;;;6.93;;
22955;SDS011;40888;48.148;11.526;2023-09-08T05:14:42;9.20;;;6.67;;
22955;SDS011;40888;48.148;11.526;2023-09-08T05:17:08;9.10;;;6.93;;
22955;SDS011;40888;48.148;11.526;2023-09-08T05:19:34;10.87;;;6.53;;
22955;SDS011;40888;48.148;11.526;2023-09-08T05:22:00;14.97;;;7.27;;
22955;SDS011;40888;48.148;11.526;2023-09-08T05:24:26;8.33;;;7.43;;
22955;SDS011;40888;48.148;11.526;2023-09-08T05:26:52;10.13;;;7.17;;
22955;SDS011;40888;48.148;11.526;2023-09-08T05:29:18;11.13;;;7.70;;
22955;SDS011;40888;48.148;11.526;2023-09-08T05:31:43;8.60;;;7.80;;
22955;SDS011;40888;48.148;11.526;2023-09-08T05:34:09;8.80;;;7.07;;
22955;SDS011;40888;48.148;11.526;2023-09-08T05:36:35;10.43;;;6.60;;
22955;SDS011;40888;48.148;11.526;2023-09-08T05:39:05;9.47;;;7.47;;
22955;SDS011;40888;48.148;11.526;2023-09-08T05:41:30;10.20;;;7.53;;
22955;SDS011;40888;48.148;11.526;2023-09-08T05:43:57;9.63;;;7.33;;
22955;SDS011;40888;48.148;11.526;2023-09-08T05:46:23;10.27;;;7.90;;
22955;SDS011;40888;48.148;11.526;2023-09-08T05:51:22;10.13;;;8.43;;
22955;SDS011;40888;48.148;11.526;2023-09-08T05:53:47;11.43;;;8.73;;
22955;SDS011;40888;48.148;11.526;2023-09-08T05:56:14;12.17;;;9.23;;
22955;SDS011;40888;48.148;11.526;2023-09-08T05:58:40;11.33;;;8.40;;
22955;SDS011;40888;48.148;11.526;2023-09-08T06:01:06;10.70;;;8.52;;
22955;SDS011;40888;48.148;11.526;2023-09-08T06:03:32;15.05;;;9.20;;
22955;SDS011;40888;48.148;11.526;2023-09-08T06:05:58;11.33;;;8.80;;
22955;SDS011;40888;48.148;11.526;2023-09-08T06:08:23;12.53;;;9.00;;
22955;SDS011;40888;48.148;11.526;2023-09-08T06:10:49;11.20;;;8.63;;
22955;SDS011;40888;48.148;11.526;2023-09-08T06:13:15;13.23;;;8.82;;
22955;SDS011;40888;48.148;11.526;2023-09-08T06:15:41;8.40;;;7.60;;
22955;SDS011;40888;48.148;11.526;2023-09-08T06:18:07;14.90;;;9.45;;
22955;SDS011;40888;48.148;11.526;2023-09-08T06:20:34;14.35;;;9.45;;
22955;SDS011;40888;48.148;11.526;2023-09-08T06:22:59;12.65;;;8.60;;
22955;SDS011;40888;48.148;11.526;2023-09-08T06:25:26;11.32;;;8.90;;
22955;SDS011;40888;48.148;11.526;2023-09-08T06:27:53;14.45;;;10.57;;
22955;SDS011;40888;48.148;11.526;2023-09-08T06:30:19;14.77;;;9.40;;
22955;SDS011;40888;48.148;11.526;2023-09-08T06:32:45;11.48;;;10.25;;
22955;SDS011;40888;48.148;11.526;2023-09-08T06:35:10;13.85;;;9.93;;
22955;SDS011;40888;48.148;11.526;2023-09-08T06:37:39;12.52;;;10.05;;
22955;SDS011;40888;48.148;11.526;2023-09-08T06:40:05;11.98;;;9.20;;
22955;SDS011;40888;48.148;11.526;2023-09-08T06:42:31;12.40;;;8.43;;
22955;SDS011;40888;48.148;11.526;2023-09-08T06:44:58;11.15;;;8.75;;
22955;SDS011;40888;48.148;11.526;2023-09-08T06:47:24;12.05;;;8.90;;
22955;SDS011;40888;48.148;11.526;2023-09-08T06:49:50;11.90;;;7.97;;
22955;SDS011;40888;48.148;11.526;2023-09-08T06:52:16;13.40;;;8.82;;
22955;SDS011;40888;48.148;11.526;2023-09-08T06:54:42;11.05;;;9.18;;
22955;SDS011;40888;48.148;11.526;2023-09-08T06:57:11;11.45;;;8.23;;
22955;SDS011;40888;48.148;11.526;2023-09-08T06:59:37;13.50;;;9.23;;
22955;SDS011;40888;48.148;11.526;2023-09-08T07:02:03;13.77;;;8.80;;
22955;SDS011;40888;48.148;11.526;2023-09-08T07:04:29;12.10;;;7.78;;
22955;SDS011;40888;48.148;11.526;2023-09-08T07:06:55;10.98;;;8.40;;
22955;SDS011;40888;48.148;11.526;2023-09-08T07:09:21;14.93;;;8.95;;
22955;SDS011;40888;48.148;11.526;2023-09-08T07:11:47;10.10;;;8.45;;
22955;SDS011;40888;48.148;11.526;2023-09-08T07:14:12;12.32;;;8.43;;
22955;SDS011;40888;48.148;11.526;2023-09-08T07:16:39;10.43;;;9.32;;
22955;SDS011;40888;48.148;11.526;2023-09-08T07:19:05;15.55;;;9.15;;
22955;SDS011;40888;48.148;11.526;2023-09-08T07:21:31;12.88;;;9.20;;
22955;SDS011;40888;48.148;11.526;2023-09-08T07:23:56;8.52;;;7.57;;
22955;SDS011;40888;48.148;11.526;2023-09-08T07:26:23;13.85;;;9.93;;
22955;SDS011;40888;48.148;11.526;2023-09-08T07:28:49;13.10;;;9.35;;
22955;SDS011;40888;48.148;11.526;2023-09-08T07:31:15;14.13;;;9.18;;
22955;SDS011;40888;48.148;11.526;2023-09-08T07:33:41;10.52;;;8.32;;
22955;SDS011;40888;48.148;11.526;2023-09-08T07:36:07;10.15;;;8.32;;
22955;SDS011;40888;48.148;11.526;2023-09-08T07:38:34;11.82;;;9.07;;
22955;SDS011;40888;48.148;11.526;2023-09-08T07:41:01;16.33;;;8.68;;
22955;SDS011;40888;48.148;11.526;2023-09-08T07:43:28;11.90;;;9.15;;
22955;SDS011;40888;48.148;11.526;2023-09-08T07:45:53;11.00;;;8.77;;
22955;SDS011;40888;48.148;11.526;2023-09-08T07:48:19;9.13;;;8.18;;
22955;SDS011;40888;48.148;11.526;2023-09-08T07:50:45;10.85;;;9.32;;
22955;SDS011;40888;48.148;11.526;2023-09-08T07:53:11;8.30;;;7.40;;
22955;SDS011;40888;48.148;11.526;2023-09-08T07:55:37;11.07;;;8.48;;
22955;SDS011;40888;48.148;11.526;2023-09-08T07:58:02;11.80;;;8.68;;
22955;SDS011;40888;48.148;11.526;2023-09-08T08:00:29;10.73;;;8.60;;
22955;SDS011;40888;48.148;11.526;2023-09-08T08:02:55;8.65;;;7.75;;
22955;SDS011;40888;48.148;11.526;2023-09-08T08:05:22;11.82;;;8.35;;
22955;SDS011;40888;48.148;11.526;2023-09-08T08:07:49;14.80;;;9.15;;
22955;SDS011;40888;48.148;11.526;2023-09-08T08:10:14;11.57;;;8.55;;
22955;SDS011;40888;48.148;11.526;2023-09-08T08:12:40;9.07;;;8.10;;
22955;SDS011;40888;48.148;11.526;2023-09-08T08:15:07;11.32;;;8.68;;
22955;SDS011;40888;48.148;11.526;2023-09-08T08:17:35;11.00;;;8.57;;
22955;SDS011;40888;48.148;11.526;2023-09-08T08:20:02;10.05;;;7.97;;
22955;SDS011;40888;48.148;11.526;2023-09-08T08:22:42;8.65;;;7.30;;
22955;SDS011;40888;48.148;11.526;2023-09-08T08:25:11;9.57;;;8.00;;
22955;SDS011;40888;48.148;11.526;2023-09-08T08:27:39;7.47;;;6.68;;
22955;SDS011;40888;48.148;11.526;2023-09-08T08:30:06;10.80;;;7.28;;
22955;SDS011;40888;48.148;11.526;2023-09-08T08:32:33;11.30;;;7.75;;
22955;SDS011;40888;48.148;11.526;2023-09-08T08:34:59;8.43;;;7.63;;
22955;SDS011;40888;48.148;11.526;2023-09-08T08:37:25;9.35;;;8.05;;
22955;SDS011;40888;48.148;11.526;2023-09-08T08:39:50;9.50;;;7.68;;
22955;SDS011;40888;48.148;11.526;2023-09-08T08:42:16;8.48;;;7.60;;
22955;SDS011;40888;48.148;11.526;2023-09-08T08:44:43;10.80;;;7.38;;
22955;SDS011;40888;48.148;11.526;2023-09-08T08:47:10;8.15;;;7.43;;
22955;SDS011;40888;48.148;11.526;2023-09-08T08:49:37;10.85;;;8.30;;
22955;SDS011;40888;48.148;11.526;2023-09-08T08:52:07;10.18;;;8.52;;
22955;SDS011;40888;48.148;11.526;2023-09-08T08:54:40;12.52;;;8.52;;
22955;SDS011;40888;48.148;11.526;2023-09-08T08:57:07;11.95;;;8.35;;
22955;SDS011;40888;48.148;11.526;2023-09-08T08:59:34;10.77;;;7.85;;
22955;SDS011;40888;48.148;11.526;2023-09-08T09:02:01;8.50;;;7.53;;
22955;SDS011;40888;48.148;11.526;2023-09-08T09:04:28;9.85;;;7.78;;
22955;SDS011;40888;48.148;11.526;2023-09-08T09:06:55;10.13;;;7.38;;
22955;SDS011;40888;48.148;11.526;2023-09-08T09:09:21;6.82;;;6.13;;
22955;SDS011;40888;48.148;11.526;2023-09-08T09:11:48;8.23;;;7.10;;
22955;SDS011;40888;48.148;11.526;2023-09-08T09:14:14;9.20;;;7.68;;
22955;SDS011;40888;48.148;11.526;2023-09-08T09:16:42;8.48;;;7.55;;
22955;SDS011;40888;48.148;11.526;2023-09-08T09:19:09;8.68;;;7.78;;
22955;SDS011;40888;48.148;11.526;2023-09-08T09:21:45;8.25;;;7.40;;
22955;SDS011;40888;48.148;11.526;2023-09-08T09:24:16;8.50;;;7.45;;
22955;SDS011;40888;48.148;11.526;2023-09-08T09:26:43;8.43;;;7.45;;
22955;SDS011;40888;48.148;11.526;2023-09-08T09:29:12;8.65;;;7.32;;
22955;SDS011;40888;48.148;11.526;2023-09-08T09:31:54;9.27;;;6.97;;
22955;SDS011;40888;48.148;11.526;2023-09-08T09:34:22;8.52;;;7.40;;
22955;SDS011;40888;48.148;11.526;2023-09-08T09:36:48;10.73;;;7.30;;
22955;SDS011;40888;48.148;11.526;2023-09-08T09:39:18;7.88;;;7.07;;
22955;SDS011;40888;48.148;11.526;2023-09-08T09:41:49;9.25;;;7.50;;
22955;SDS011;40888;48.148;11.526;2023-09-08T09:44:18;7.88;;;7.07;;
22955;SDS011;40888;48.148;11.526;2023-09-08T09:46:45;9.95;;;6.97;;
22955;SDS011;40888;48.148;11.526;2023-09-08T09:49:15;10.80;;;7.82;;
22955;SDS011;40888;48.148;11.526;2023-09-08T09:51:45;8.05;;;6.75;;
22955;SDS011;40888;48.148;11.526;2023-09-08T09:54:13;10.55;;;6.78;;
22955;SDS011;40888;48.148;11.526;2023-09-08T09:56:40;10.15;;;6.53;;
22955;SDS011;40888;48.148;11.526;2023-09-08T09:59:09;9.65;;;7.13;;
22955;SDS011;40888;48.148;11.526;2023-09-08T10:01:37;9.98;;;6.93;;
22955;SDS011;40888;48.148;11.526;2023-09-08T10:04:06;11.20;;;6.78;;
22955;SDS011;40888;48.148;11.526;2023-09-08T10:06:33;8.20;;;6.50;;
22955;SDS011;40888;48.148;11.526;2023-09-08T10:09:04;7.55;;;6.85;;
22955;SDS011;40888;48.148;11.526;2023-09-08T10:11:49;8.98;;;6.15;;
22955;SDS011;40888;48.148;11.526;2023-09-08T10:14:18;7.90;;;6.93;;
22955;SDS011;40888;48.148;11.526;2023-09-08T10:16:44;8.40;;;6.20;;
22955;SDS011;40888;48.148;11.526;2023-09-08T10:19:14;9.35;;;6.30;;
22955;SDS011;40888;48.148;11.526;2023-09-08T10:21:42;7.93;;;6.32;;
22955;SDS011;40888;48.148;11.526;2023-09-08T10:27:11;8.40;;;6.03;;
22955;SDS011;40888;48.148;11.526;2023-09-08T10:29:37;6.13;;;5.53;;
22955;SDS011;40888;48.148;11.526;2023-09-08T10:32:06;7.05;;;5.80;;
22955;SDS011;40888;48.148;11.526;2023-09-08T10:34:34;6.93;;;6.22;;
22955;SDS011;40888;48.148;11.526;2023-09-08T10:37:02;6.93;;;6.32;;
22955;SDS011;40888;48.148;11.526;2023-09-08T10:39:29;7.88;;;5.50;;
22955;SDS011;40888;48.148;11.526;2023-09-08T10:42:41;5.60;;;5.10;;
22955;SDS011;40888;48.148;11.526;2023-09-08T10:44:43;9.15;;;5.55;;
22955;SDS011;40888;48.148;11.526;2023-09-08T10:47:41;6.35;;;5.22;;
22955;SDS011;40888;48.148;11.526;2023-09-08T10:50:20;7.53;;;6.35;;
22955;SDS011;40888;48.148;11.526;2023-09-08T10:53:05;8.50;;;6.10;;
22955;SDS011;40888;48.148;11.526;2023-09-08T10:55:40;5.70;;;5.05;;
22955;SDS011;40888;48.148;11.526;2023-09-08T10:58:11;7.13;;;5.30;;
22955;SDS011;40888;48.148;11.526;2023-09-08T11:00:42;7.00;;;5.85;;
22955;SDS011;40888;48.148;11.526;2023-09-08T11:03:09;7.25;;;5.32;;
22955;SDS011;40888;48.148;11.526;2023-09-08T11:05:35;6.40;;;5.03;;
22955;SDS011;40888;48.148;11.526;2023-09-08T11:08:01;7.20;;;5.18;;
22955;SDS011;40888;48.148;11.526;2023-09-08T11:10:26;5.97;;;5.38;;
22955;SDS011;40888;48.148;11.526;2023-09-08T11:12:56;6.47;;;5.80;;
22955;SDS011;40888;48.148;11.526;2023-09-08T11:15:22;7.82;;;6.05;;
22955;SDS011;40888;48.148;11.526;2023-09-08T11:17:48;6.45;;;5.85;;
22955;SDS011;40888;48.148;11.526;2023-09-08T11:20:16;7.57;;;5.18;;
22955;SDS011;40888;48.148;11.526;2023-09-08T11:22:50;6.45;;;5.57;;
22955;SDS011;40888;48.148;11.526;2023-09-08T11:25:16;5.65;;;5.13;;
22955;SDS011;40888;48.148;11.526;2023-09-08T11:27:42;6.30;;;5.70;;
22955;SDS011;40888;48.148;11.526;2023-09-08T11:30:09;12.70;;;5.20;;
22955;SDS011;40888;48.148;11.526;2023-09-08T11:32:39;6.93;;;5.57;;
22955;SDS011;40888;48.148;11.526;2023-09-08T11:35:05;5.78;;;5.28;;
22955;SDS011;40888;48.148;11.526;2023-09-08T11:37:34;6.40;;;5.80;;
22955;SDS011;40888;48.148;11.526;2023-09-08T11:40:04;5.95;;;5.28;;
22955;SDS011;40888;48.148;11.526;2023-09-08T11:42:34;8.32;;;5.93;;
22955;SDS011;40888;48.148;11.526;2023-09-08T11:45:00;9.45;;;5.68;;
22955;SDS011;40888;48.148;11.526;2023-09-08T11:47:28;7.32;;;6.10;;
22955;SDS011;40888;48.148;11.526;2023-09-08T11:49:55;8.18;;;5.70;;
22955;SDS011;40888;48.148;11.526;2023-09-08T11:52:22;8.35;;;5.63;;
22955;SDS011;40888;48.148;11.526;2023-09-08T11:54:52;6.47;;;5.53;;
22955;SDS011;40888;48.148;11.526;2023-09-08T11:57:17;8.55;;;6.15;;
22955;SDS011;40888;48.148;11.526;2023-09-08T11:59:44;7.15;;;6.43;;
22955;SDS011;40888;48.148;11.526;2023-09-08T12:02:13;8.13;;;6.47;;
22955;SDS011;40888;48.148;11.526;2023-09-08T12:04:40;7.60;;;5.80;;
22955;SDS011;40888;48.148;11.526;2023-09-08T12:07:07;5.95;;;5.45;;
22955;SDS011;40888;48.148;11.526;2023-09-08T12:09:41;8.00;;;6.07;;
22955;SDS011;40888;48.148;11.526;2023-09-08T12:12:13;8.32;;;5.82;;
22955;SDS011;40888;48.148;11.526;2023-09-08T12:14:42;5.82;;;5.32;;
22955;SDS011;40888;48.148;11.526;2023-09-08T12:17:11;6.40;;;5.80;;
22955;SDS011;40888;48.148;11.526;2023-09-08T12:19:42;6.68;;;6.05;;
22955;SDS011;40888;48.148;11.526;2023-09-08T12:22:07;8.95;;;5.82;;
22955;SDS011;40888;48.148;11.526;2023-09-08T12:24:50;8.40;;;5.88;;
22955;SDS011;40888;48.148;11.526;2023-09-08T12:27:22;8.60;;;5.80;;
22955;SDS011;40888;48.148;11.526;2023-09-08T12:32:25;9.15;;;5.82;;
22955;SDS011;40888;48.148;11.526;2023-09-08T12:34:51;6.88;;;5.57;;
22955;SDS011;40888;48.148;11.526;2023-09-08T12:37:24;6.05;;;5.45;;
22955;SDS011;40888;48.148;11.526;2023-09-08T12:39:56;6.47;;;5.57;;
22955;SDS011;40888;48.148;11.526;2023-09-08T12:42:26;6.88;;;5.82;;
22955;SDS011;40888;48.148;11.526;2023-09-08T12:44:54;6.10;;;5.50;;
22955;SDS011;40888;48.148;11.526;2023-09-08T12:47:20;6.10;;;5.57;;
22955;SDS011;40888;48.148;11.526;2023-09-08T12:49:46;7.25;;;5.35;;
22955;SDS011;40888;48.148;11.526;2023-09-08T12:52:12;5.60;;;5.10;;
22955;SDS011;40888;48.148;11.526;2023-09-08T12:54:38;5.95;;;5.40;;
22955;SDS011;40888;48.148;11.526;2023-09-08T12:57:03;5.70;;;5.20;;
22955;SDS011;40888;48.148;11.526;2023-09-08T12:59:32;6.90;;;6.15;;
22955;SDS011;40888;48.148;11.526;2023-09-08T13:01:58;9.40;;;5.00;;
22955;SDS011;40888;48.148;11.526;2023-09-08T13:04:23;7.10;;;5.50;;
22955;SDS011;40888;48.148;11.526;2023-09-08T13:06:50;6.95;;;5.72;;
22955;SDS011;40888;48.148;11.526;2023-09-08T13:09:16;6.65;;;5.80;;
22955;SDS011;40888;48.148;11.526;2023-09-08T13:11:42;5.68;;;5.07;;
22955;SDS011;40888;48.148;11.526;2023-09-08T13:14:08;7.68;;;5.78;;
22955;SDS011;40888;48.148;11.526;2023-09-08T13:16:34;5.75;;;5.25;;
22955;SDS011;40888;48.148;11.526;2023-09-08T13:18:59;5.47;;;4.70;;
22955;SDS011;40888;48.148;11.526;2023-09-08T13:21:25;5.68;;;5.15;;
22955;SDS011;40888;48.148;11.526;2023-09-08T13:23:51;5.85;;;5.35;;
22955;SDS011;40888;48.148;11.526;2023-09-08T13:26:17;5.90;;;5.30;;
22955;SDS011;40888;48.148;11.526;2023-09-08T13:28:42;5.03;;;4.63;;
22955;SDS011;40888;48.148;11.526;2023-09-08T13:31:08;6.15;;;5.50;;
22955;SDS011;40888;48.148;11.526;2023-09-08T13:33:34;6.30;;;5.80;;
22955;SDS011;40888;48.148;11.526;2023-09-08T13:36:01;5.82;;;5.30;;
22955;SDS011;40888;48.148;11.526;2023-09-08T13:38:30;8.73;;;5.38;;
22955;SDS011;40888;48.148;11.526;2023-09-08T13:40:55;6.38;;;5.78;;
22955;SDS011;40888;48.148;11.526;2023-09-08T13:43:21;6.53;;;5.80;;
22955;SDS011;40888;48.148;11.526;2023-09-08T13:45:47;5.50;;;4.97;;
22955;SDS011;40888;48.148;11.526;2023-09-08T13:48:21;8.70;;;6.00;;
22955;SDS011;40888;48.148;11.526;2023-09-08T13:50:47;6.43;;;5.63;;
22955;SDS011;40888;48.148;11.526;2023-09-08T13:53:13;7.22;;;6.05;;
22955;SDS011;40888;48.148;11.526;2023-09-08T13:55:39;6.68;;;5.82;;
22955;SDS011;40888;48.148;11.526;2023-09-08T13:58:05;7.13;;;5.57;;
22955;SDS011;40888;48.148;11.526;2023-09-08T14:00:31;6.45;;;5.75;;
22955;SDS011;40888;48.148;11.526;2023-09-08T14:02:57;5.68;;;5.18;;
22955;SDS011;40888;48.148;11.526;2023-09-08T14:05:22;6.82;;;5.13;;
22955;SDS011;40888;48.148;11.526;2023-09-08T14:07:49;6.35;;;5.57;;
22955;SDS011;40888;48.148;11.526;2023-09-08T14:10:24;6.40;;;5.00;;
22955;SDS011;40888;48.148;11.526;2023-09-08T14:12:49;7.47;;;5.97;;
22955;SDS011;40888;48.148;11.526;2023-09-08T14:15:15;5.90;;;5.07;;
22955;SDS011;40888;48.148;11.526;2023-09-08T14:17:41;6.13;;;5.30;;
22955;SDS011;40888;48.148;11.526;2023-09-08T14:20:10;8.30;;;4.93;;
22955;SDS011;40888;48.148;11.526;2023-09-08T14:22:36;6.28;;;5.47;;
22955;SDS011;40888;48.148;11.526;2023-09-08T14:25:06;7.70;;;5.60;;
22955;SDS011;40888;48.148;11.526;2023-09-08T14:27:32;7.53;;;5.38;;
22955;SDS011;40888;48.148;11.526;2023-09-08T14:29:59;5.88;;;5.38;;
22955;SDS011;40888;48.148;11.526;2023-09-08T14:32:28;5.95;;;5.43;;
22955;SDS011;40888;48.148;11.526;2023-09-08T14:34:53;6.18;;;5.13;;
22955;SDS011;40888;48.148;11.526;2023-09-08T14:37:19;5.40;;;5.00;;
22955;SDS011;40888;48.148;11.526;2023-09-08T14:39:45;6.20;;;4.93;;